createdAt,value
2018-05-21T00:00:11.977Z,12.77
2018-05-21T00:02:11.996Z,12.67
2018-05-21T00:03:12.041Z,12.67
2018-05-21T00:04:12.056Z,12.6
2018-05-21T00:05:12.092Z,12.5
2018-05-21T00:06:12.085Z,12.57
2018-05-21T00:07:11.868Z,12.64
2018-05-21T00:08:11.867Z,12.53
2018-05-21T00:09:11.920Z,12.54
2018-05-21T00:10:26.823Z,12.49
2018-05-21T00:11:12.033Z,12.45
2018-05-21T00:12:11.981Z,12.37
2018-05-21T00:13:26.898Z,12.27
2018-05-21T00:14:12.019Z,12.27
2018-05-21T00:15:12.033Z,12.34
2018-05-21T00:16:26.973Z,12.21
2018-05-21T00:17:12.342Z,12.17
2018-05-21T00:18:12.080Z,12.2
2018-05-21T00:19:12.362Z,12.12
2018-05-21T00:20:12.418Z,12.16
2018-05-21T00:21:26.808Z,12.12
2018-05-21T00:22:12.193Z,12.09
2018-05-21T00:24:12.500Z,12.1
2018-05-21T00:26:26.912Z,12.01
2018-05-21T00:27:12.564Z,12.02
2018-05-21T00:28:12.566Z,12.02
2018-05-21T00:30:12.605Z,11.94
2018-05-21T00:31:12.638Z,11.96
2018-05-21T00:32:27.323Z,11.99
2018-05-21T00:33:12.695Z,12.01
2018-05-21T00:34:12.690Z,12.04
2018-05-21T00:35:12.747Z,12.16
2018-05-21T00:36:12.821Z,12.21
2018-05-21T00:37:12.782Z,12.17
2018-05-21T00:38:12.516Z,12.2
2018-05-21T00:39:12.825Z,12.19
2018-05-21T00:40:12.852Z,12.16
2018-05-21T00:42:12.629Z,12.05
2018-05-21T00:43:12.622Z,12.04
2018-05-21T00:44:12.653Z,12.04
2018-05-21T00:45:12.964Z,12.04
2018-05-21T00:46:12.948Z,12.04
2018-05-21T00:47:12.977Z,12.02
2018-05-21T00:48:12.737Z,11.94
2018-05-21T00:49:27.688Z,11.76
2018-05-21T00:50:13.068Z,11.82
2018-05-21T00:51:13.064Z,11.8
2018-05-21T00:52:13.105Z,11.79
2018-05-21T00:54:13.136Z,11.7
2018-05-21T00:55:13.138Z,11.78
2018-05-21T00:56:13.198Z,11.65
2018-05-21T00:57:13.215Z,11.69
2018-05-21T00:58:12.944Z,11.8
2018-05-21T01:00:12.988Z,11.82
2018-05-21T01:01:13.288Z,11.91
2018-05-21T01:03:13.347Z,11.85
2018-05-21T01:04:13.360Z,11.8
2018-05-21T01:05:13.096Z,11.76
2018-05-21T01:06:13.405Z,11.72
2018-05-21T01:07:27.799Z,11.78
2018-05-21T01:08:13.436Z,11.75
2018-05-21T01:10:13.227Z,11.82
2018-05-21T01:11:13.479Z,11.82
2018-05-21T01:12:13.541Z,11.79
2018-05-21T01:13:28.188Z,11.78
2018-05-21T01:14:13.311Z,11.82
2018-05-21T01:15:28.230Z,11.79
2018-05-21T01:16:13.619Z,11.8
2018-05-21T01:17:13.347Z,11.8
2018-05-21T01:19:13.687Z,11.99
2018-05-21T01:20:13.697Z,11.9
2018-05-21T01:21:13.725Z,11.85
2018-05-21T01:22:13.553Z,11.91
2018-05-21T01:23:13.764Z,11.79
2018-05-21T01:24:13.497Z,11.91
2018-05-21T01:25:13.811Z,11.78
2018-05-21T01:26:13.797Z,11.9
2018-05-21T01:27:13.859Z,11.78
2018-05-21T01:28:13.852Z,11.79
2018-05-21T01:29:28.551Z,11.9
2018-05-21T01:30:13.881Z,11.82
2018-05-21T01:31:13.904Z,11.73
2018-05-21T01:32:13.686Z,11.79
2018-05-21T01:33:13.708Z,11.78
2018-05-21T01:35:13.987Z,11.95
2018-05-21T01:36:14.040Z,11.86
2018-05-21T01:37:14.041Z,11.76
2018-05-21T01:38:14.067Z,11.78
2018-05-21T01:39:13.850Z,11.83
2018-05-21T01:40:14.097Z,11.9
2018-05-21T01:41:14.119Z,11.94
2018-05-21T01:43:14.181Z,11.79
2018-05-21T01:44:13.945Z,11.73
2018-05-21T01:46:14.257Z,11.73
2018-05-21T01:48:13.748Z,11.73
2018-05-21T01:49:14.308Z,11.73
2018-05-21T01:50:14.323Z,11.75
2018-05-21T01:51:14.357Z,11.73
2018-05-21T01:52:14.343Z,11.72
2018-05-21T01:53:14.396Z,11.72
2018-05-21T01:54:14.129Z,11.75
2018-05-21T01:55:14.189Z,11.78
2018-05-21T01:56:14.430Z,11.73
2018-05-21T01:57:29.128Z,11.76
2018-05-21T01:58:14.500Z,11.72
2018-05-21T01:59:14.517Z,11.72
2018-05-21T02:00:14.256Z,11.72
2018-05-21T02:01:29.201Z,11.75
2018-05-21T02:02:14.691Z,11.6
2018-05-21T02:03:14.325Z,11.69
2018-05-21T02:04:14.621Z,11.65
2018-05-21T02:05:14.386Z,11.69
2018-05-21T02:06:14.382Z,11.67
2018-05-21T02:07:14.429Z,11.73
2018-05-21T02:08:14.567Z,11.55
2018-05-21T02:09:14.478Z,11.67
2018-05-21T02:10:14.476Z,11.69
2018-05-21T02:11:14.492Z,11.64
2018-05-21T02:12:29.461Z,11.69
2018-05-21T02:13:14.537Z,11.57
2018-05-21T02:14:14.576Z,11.54
2018-05-21T02:15:14.571Z,11.6
2018-05-21T02:16:29.529Z,11.6
2018-05-21T02:17:14.614Z,11.67
2018-05-21T02:18:14.634Z,11.6
2018-05-21T02:19:14.682Z,11.58
2018-05-21T02:20:14.686Z,11.62
2018-05-21T02:21:14.723Z,11.58
2018-05-21T02:22:14.990Z,11.6
2018-05-21T02:23:15.037Z,11.67
2018-05-21T02:24:15.018Z,11.62
2018-05-21T02:25:29.441Z,11.69
2018-05-21T02:27:15.084Z,11.54
2018-05-21T02:28:15.135Z,11.55
2018-05-21T02:29:15.125Z,11.6
2018-05-21T02:30:15.186Z,11.67
2018-05-21T02:31:15.181Z,11.54
2018-05-21T02:32:15.201Z,11.67
2018-05-21T02:34:14.976Z,11.6
2018-05-21T02:35:15.252Z,11.64
2018-05-21T02:37:15.292Z,11.61
2018-05-21T02:38:15.351Z,11.61
2018-05-21T02:39:15.347Z,11.69
2018-05-21T02:40:30.033Z,11.75
2018-05-21T02:41:15.374Z,11.65
2018-05-21T02:42:30.069Z,11.57
2018-05-21T02:44:15.436Z,11.49
2018-05-21T02:45:15.486Z,11.73
2018-05-21T02:46:15.505Z,11.67
2018-05-21T02:47:15.522Z,11.72
2018-05-21T02:48:30.217Z,11.69
2018-05-21T02:49:15.283Z,11.65
2018-05-21T02:50:15.592Z,11.69
2018-05-21T02:51:15.589Z,11.61
2018-05-21T02:52:15.370Z,11.51
2018-05-21T02:53:15.621Z,11.57
2018-05-21T02:54:15.675Z,11.57
2018-05-21T02:55:15.668Z,11.54
2018-05-21T02:56:15.849Z,11.6
2018-05-21T02:57:15.721Z,11.51
2018-05-21T02:58:15.761Z,11.58
2018-05-21T02:59:15.752Z,11.55
2018-05-21T03:00:15.799Z,11.44
2018-05-21T03:01:15.812Z,11.49
2018-05-21T03:02:15.846Z,11.46
2018-05-21T03:03:15.843Z,11.36
2018-05-21T03:04:30.530Z,11.4
2018-05-21T03:05:15.875Z,11.39
2018-05-21T03:06:15.914Z,11.46
2018-05-21T03:07:15.919Z,11.46
2018-05-21T03:08:15.966Z,11.6
2018-05-21T03:10:30.639Z,11.4
2018-05-21T03:11:16.030Z,11.42
2018-05-21T03:12:30.685Z,11.44
2018-05-21T03:13:30.699Z,11.51
2018-05-21T03:14:15.822Z,11.43
2018-05-21T03:15:16.114Z,11.43
2018-05-21T03:16:16.134Z,11.42
2018-05-21T03:17:16.123Z,11.37
2018-05-21T03:18:16.181Z,11.43
2018-05-21T03:20:30.844Z,11.32
2018-05-21T03:21:15.976Z,11.37
2018-05-21T03:22:15.973Z,11.39
2018-05-21T03:23:16.280Z,11.42
2018-05-21T03:24:16.272Z,11.39
2018-05-21T03:25:16.323Z,11.47
2018-05-21T03:26:16.320Z,11.51
2018-05-21T03:27:16.347Z,11.52
2018-05-21T03:28:16.120Z,11.57
2018-05-21T03:29:16.113Z,11.49
2018-05-21T03:30:30.808Z,11.51
2018-05-21T03:31:16.457Z,11.6
2018-05-21T03:32:16.456Z,11.54
2018-05-21T03:33:16.486Z,11.57
2018-05-21T03:34:16.477Z,11.57
2018-05-21T03:35:16.525Z,11.57
2018-05-21T03:36:31.193Z,11.57
2018-05-21T03:37:16.542Z,11.58
2018-05-21T03:39:16.597Z,11.57
2018-05-21T03:40:16.375Z,11.55
2018-05-21T03:41:16.627Z,11.58
2018-05-21T03:42:16.669Z,11.64
2018-05-21T03:43:31.323Z,11.58
2018-05-21T03:44:16.717Z,11.64
2018-05-21T03:45:16.705Z,11.7
2018-05-21T03:46:16.755Z,11.65
2018-05-21T03:47:16.526Z,11.64
2018-05-21T03:48:16.524Z,11.62
2018-05-21T03:49:16.530Z,11.55
2018-05-21T03:50:16.807Z,11.54
2018-05-21T03:51:31.508Z,11.72
2018-05-21T03:52:16.852Z,11.61
2018-05-21T03:53:16.885Z,11.64
2018-05-21T03:54:16.924Z,11.67
2018-05-21T03:55:16.498Z,11.7
2018-05-21T03:56:16.708Z,11.73
2018-05-21T03:57:16.973Z,11.75
2018-05-21T03:59:17.005Z,11.75
2018-05-21T04:00:16.764Z,11.78
2018-05-21T04:01:17.067Z,11.83
2018-05-21T04:02:17.078Z,11.78
2018-05-21T04:04:17.116Z,11.75
2018-05-21T04:05:16.895Z,11.76
2018-05-21T04:06:17.145Z,11.94
2018-05-21T04:07:17.194Z,12.04
2018-05-21T04:08:16.944Z,11.99
2018-05-21T04:09:17.209Z,11.99
2018-05-21T04:10:17.228Z,12.01
2018-05-21T04:11:17.280Z,12.07
2018-05-21T04:12:17.278Z,12.13
2018-05-21T04:14:17.346Z,12.16
2018-05-21T04:15:17.094Z,12.07
2018-05-21T04:16:17.103Z,12.12
2018-05-21T04:17:17.382Z,12.28
2018-05-21T04:18:32.076Z,12.23
2018-05-21T04:19:17.423Z,12.21
2018-05-21T04:20:17.458Z,12.24
2018-05-21T04:21:17.494Z,12.24
2018-05-21T04:22:17.490Z,12.37
2018-05-21T04:23:32.184Z,12.31
2018-05-21T04:24:17.293Z,12.34
2018-05-21T04:25:17.290Z,12.42
2018-05-21T04:27:17.590Z,12.42
2018-05-21T04:28:17.617Z,12.47
2018-05-21T04:29:17.383Z,12.49
2018-05-21T04:30:17.684Z,12.49
2018-05-21T04:31:17.451Z,12.56
2018-05-21T04:32:17.701Z,12.57
2018-05-21T04:33:17.212Z,12.7
2018-05-21T04:34:17.748Z,12.65
2018-05-21T04:35:17.791Z,12.64
2018-05-21T04:36:17.864Z,12.71
2018-05-21T04:37:17.836Z,12.77
2018-05-21T04:38:17.830Z,12.83
2018-05-21T04:39:32.525Z,13.04
2018-05-21T04:40:17.617Z,13.38
2018-05-21T04:41:17.892Z,14.14
2018-05-21T04:42:17.928Z,14.98
2018-05-21T04:43:17.971Z,15.9
2018-05-21T04:44:17.730Z,16.53
2018-05-21T04:45:32.641Z,17.11
2018-05-21T04:46:18.034Z,17.51
2018-05-21T04:47:17.772Z,18.02
2018-05-21T04:48:32.725Z,19.07
2018-05-21T04:49:32.481Z,19.71
2018-05-21T04:50:32.773Z,20.05
2018-05-21T04:51:18.125Z,20.26
2018-05-21T04:52:18.179Z,20.7
2018-05-21T04:54:18.231Z,21.53
2018-05-21T04:55:32.902Z,21.86
2018-05-21T04:56:18.253Z,22
2018-05-21T04:57:18.307Z,22.02
2018-05-21T04:58:18.305Z,22.39
2018-05-21T05:00:18.106Z,23.12
2018-05-21T05:02:18.442Z,23.17
2018-05-21T05:03:18.436Z,23.32
2018-05-21T05:04:18.496Z,23.97
2018-05-21T05:05:18.236Z,24.52
2018-05-21T05:06:18.559Z,24.96
2018-05-21T05:07:18.292Z,25.08
2018-05-21T05:08:18.615Z,25.23
2018-05-21T05:09:18.622Z,25.25
2018-05-21T05:10:18.668Z,25.06
2018-05-21T05:11:33.326Z,25.72
2018-05-21T05:12:18.703Z,25.87
2018-05-21T05:13:18.750Z,25.94
2018-05-21T05:14:18.768Z,26.33
2018-05-21T05:15:18.789Z,26.48
2018-05-21T05:16:18.850Z,26.65
2018-05-21T05:17:18.861Z,26.29
2018-05-21T05:18:18.914Z,26.54
2018-05-21T05:19:33.570Z,25.91
2018-05-21T05:20:18.984Z,26.06
2018-05-21T05:21:18.970Z,26.15
2018-05-21T05:22:19.007Z,26.18
2018-05-21T05:23:19.046Z,26.21
2018-05-21T05:24:19.100Z,26.43
2018-05-21T05:25:19.132Z,26.15
2018-05-21T05:26:33.909Z,26.77
2018-05-21T05:27:18.922Z,26.76
2018-05-21T05:28:19.191Z,26.81
2018-05-21T05:29:18.968Z,27.19
2018-05-21T05:30:19.006Z,27.55
2018-05-21T05:31:18.793Z,27.74
2018-05-21T05:33:19.093Z,28.37
2018-05-21T05:34:19.417Z,28.62
2018-05-21T05:35:19.422Z,28.64
2018-05-21T05:36:19.470Z,28.25
2018-05-21T05:37:19.509Z,27.02
2018-05-21T05:38:19.540Z,26.95
2018-05-21T05:39:19.320Z,26.75
2018-05-21T05:40:19.583Z,26.94
2018-05-21T05:41:19.643Z,27.09
2018-05-21T05:43:19.696Z,28.09
2018-05-21T05:44:19.748Z,28.12
2018-05-21T05:46:19.786Z,28.67
2018-05-21T05:47:19.848Z,28.18
2018-05-21T05:48:19.870Z,28.44
2018-05-21T05:49:19.653Z,28.95
2018-05-21T05:50:20.022Z,28.98
2018-05-21T05:51:19.984Z,29.46
2018-05-21T05:52:19.988Z,29.16
2018-05-21T05:53:20.055Z,28.41
2018-05-21T05:54:19.803Z,28.34
2018-05-21T05:56:20.154Z,29.11
2018-05-21T05:57:20.178Z,28.73
2018-05-21T05:58:34.862Z,28.15
2018-05-21T05:59:20.229Z,27.59
2018-05-21T06:00:20.298Z,27.59
2018-05-21T06:01:20.306Z,28.25
2018-05-21T06:02:20.380Z,28.49
2018-05-21T06:03:20.367Z,28.71
2018-05-21T06:04:20.432Z,28.61
2018-05-21T06:05:20.436Z,28.3
2018-05-21T06:06:35.138Z,28.56
2018-05-21T06:07:20.519Z,28.56
2018-05-21T06:08:35.223Z,29.3
2018-05-21T06:09:20.580Z,29.33
2018-05-21T06:10:20.642Z,28.76
2018-05-21T06:11:20.399Z,28.39
2018-05-21T06:12:20.712Z,28.61
2018-05-21T06:13:20.714Z,28.67
2018-05-21T06:14:35.432Z,28.81
2018-05-21T06:15:20.787Z,29
2018-05-21T06:16:20.825Z,29.14
2018-05-21T06:18:20.922Z,28.67
2018-05-21T06:19:20.963Z,29.3
2018-05-21T06:20:35.625Z,29.06
2018-05-21T06:21:21.027Z,29.37
2018-05-21T06:22:21.029Z,29.34
2018-05-21T06:23:21.082Z,29.24
2018-05-21T06:24:21.107Z,29.98
2018-05-21T06:25:20.905Z,30.29
2018-05-21T06:26:20.936Z,30.57
2018-05-21T06:27:21.226Z,30.77
2018-05-21T06:28:21.349Z,30.75
2018-05-21T06:29:21.280Z,29.19
2018-05-21T06:30:35.995Z,29.61
2018-05-21T06:31:21.094Z,29.48
2018-05-21T06:32:21.418Z,29.6
2018-05-21T06:33:21.176Z,29.83
2018-05-21T06:34:21.714Z,30.29
2018-05-21T06:35:21.234Z,30.54
2018-05-21T06:36:21.573Z,30.83
2018-05-21T06:37:21.571Z,30.75
2018-05-21T06:38:21.614Z,30.88
2018-05-21T06:39:21.637Z,31.29
2018-05-21T06:40:36.356Z,31.85
2018-05-21T06:41:36.112Z,31.96
2018-05-21T06:42:36.426Z,31.51
2018-05-21T06:43:21.819Z,31.54
2018-05-21T06:45:21.881Z,31.16
2018-05-21T06:46:36.559Z,31.07
2018-05-21T06:47:21.930Z,30.24
2018-05-21T06:48:21.989Z,30.31
2018-05-21T06:49:21.762Z,30.31
2018-05-21T06:50:22.077Z,30.76
2018-05-21T06:51:21.821Z,30.69
2018-05-21T06:52:22.141Z,30.55
2018-05-21T06:53:22.154Z,30.77
2018-05-21T06:54:36.847Z,31.04
2018-05-21T06:55:22.246Z,31.32
2018-05-21T06:56:22.279Z,31.69
2018-05-21T06:57:22.329Z,31.57
2018-05-21T06:58:22.075Z,30.84
2018-05-21T07:00:22.411Z,30.2
2018-05-21T07:01:37.116Z,30.35
2018-05-21T07:02:22.506Z,29.82
2018-05-21T07:03:22.532Z,29.55
2018-05-21T07:04:22.553Z,30.35
2018-05-21T07:05:22.353Z,30.65
2018-05-21T07:06:22.370Z,30.54
2018-05-21T07:07:22.437Z,30.46
2018-05-21T07:08:22.434Z,30.38
2018-05-21T07:09:22.765Z,30.31
2018-05-21T07:10:22.773Z,30.53
2018-05-21T07:11:22.809Z,30.32
2018-05-21T07:12:22.869Z,30.51
2018-05-21T07:13:22.905Z,30.38
2018-05-21T07:14:23.044Z,30.27
2018-05-21T07:15:22.693Z,30.88
2018-05-21T07:16:22.490Z,30.86
2018-05-21T07:17:23.029Z,30.75
2018-05-21T07:18:37.880Z,30.8
2018-05-21T07:19:23.198Z,31.34
2018-05-21T07:20:23.264Z,31.32
2018-05-21T07:21:22.936Z,31.06
2018-05-21T07:22:22.966Z,30.84
2018-05-21T07:23:23.244Z,30.49
2018-05-21T07:24:22.851Z,30.55
2018-05-21T07:25:23.078Z,29.85
2018-05-21T07:26:23.371Z,29.98
2018-05-21T07:27:38.070Z,29.85
2018-05-21T07:28:23.444Z,30.11
2018-05-21T07:29:23.490Z,30.13
2018-05-21T07:30:23.498Z,30
2018-05-21T07:31:23.585Z,30.01
2018-05-21T07:32:23.588Z,29.64
2018-05-21T07:33:38.268Z,29.83
2018-05-21T07:34:23.382Z,30.13
2018-05-21T07:36:23.716Z,29.9
2018-05-21T07:37:23.518Z,30.34
2018-05-21T07:38:23.814Z,30.37
2018-05-21T07:39:23.841Z,30.35
2018-05-21T07:40:23.867Z,30.23
2018-05-21T07:41:23.995Z,30.79
2018-05-21T07:42:23.957Z,31.01
2018-05-21T07:43:23.975Z,30.89
2018-05-21T07:45:24.064Z,30.01
2018-05-21T07:46:24.076Z,30.16
2018-05-21T07:47:24.142Z,30.01
2018-05-21T07:48:23.919Z,30.01
2018-05-21T07:49:38.851Z,30.26
2018-05-21T07:50:24.249Z,30.46
2018-05-21T07:52:24.309Z,29.86
2018-05-21T07:53:24.066Z,30.02
2018-05-21T07:54:24.392Z,30.02
2018-05-21T07:55:24.426Z,30.34
2018-05-21T07:56:24.450Z,30.32
2018-05-21T07:57:24.232Z,30.76
2018-05-21T07:58:24.821Z,30.45
2018-05-21T07:59:24.550Z,30.57
2018-05-21T08:01:24.610Z,30.86
2018-05-21T08:02:24.765Z,31.17
2018-05-21T08:03:24.511Z,31.34
2018-05-21T08:04:24.753Z,31.04
2018-05-21T08:05:39.437Z,31.21
2018-05-21T08:06:24.785Z,31.21
2018-05-21T08:07:24.852Z,31.04
2018-05-21T08:08:24.864Z,31.35
2018-05-21T08:09:24.662Z,30.97
2018-05-21T08:10:24.689Z,30.92
2018-05-21T08:11:24.735Z,31.04
2018-05-21T08:12:25.014Z,31.14
2018-05-21T08:13:39.705Z,31.56
2018-05-21T08:14:24.833Z,31.69
2018-05-21T08:15:24.854Z,31.8
2018-05-21T08:16:39.824Z,32.06
2018-05-21T08:17:25.180Z,31.93
2018-05-21T08:18:24.984Z,31.92
2018-05-21T08:19:25.287Z,31.48
2018-05-21T08:20:25.046Z,30.53
2018-05-21T08:21:40.034Z,29.61
2018-05-21T08:22:25.567Z,29.48
2018-05-21T08:23:25.425Z,29.48
2018-05-21T08:24:25.794Z,29.94
2018-05-21T08:25:25.494Z,30.27
2018-05-21T08:26:25.503Z,30.72
2018-05-21T08:27:25.311Z,30.65
2018-05-21T08:28:25.610Z,30.55
2018-05-21T08:29:25.660Z,30.53
2018-05-21T08:30:25.646Z,30.95
2018-05-21T08:31:25.715Z,31.29
2018-05-21T08:32:25.460Z,30.99
2018-05-21T08:33:25.782Z,30.8
2018-05-21T08:34:25.783Z,31.35
2018-05-21T08:35:25.852Z,31.19
2018-05-21T08:36:40.528Z,30.55
2018-05-21T08:37:25.911Z,30.45
2018-05-21T08:38:25.918Z,30.35
2018-05-21T08:39:25.962Z,30.19
2018-05-21T08:40:26.024Z,29.86
2018-05-21T08:43:26.121Z,29.37
2018-05-21T08:44:40.796Z,29.34
2018-05-21T08:45:25.927Z,28.96
2018-05-21T08:46:26.196Z,29.12
2018-05-21T08:47:26.250Z,28.92
2018-05-21T08:48:26.476Z,29.27
2018-05-21T08:49:26.334Z,29.43
2018-05-21T08:50:26.367Z,29.83
2018-05-21T08:51:26.374Z,30.04
2018-05-21T08:52:26.687Z,30.22
2018-05-21T08:53:26.473Z,30.08
2018-05-21T08:54:26.471Z,30.04
2018-05-21T08:55:26.276Z,29.86
2018-05-21T08:56:26.541Z,29.42
2018-05-21T08:57:26.589Z,29.74
2018-05-21T08:58:26.612Z,29.83
2018-05-21T08:59:26.671Z,29.39
2018-05-21T09:00:26.941Z,29.3
2018-05-21T09:01:26.715Z,29.15
2018-05-21T09:03:26.774Z,29.3
2018-05-21T09:05:26.847Z,30.43
2018-05-21T09:06:26.907Z,29.98
2018-05-21T09:07:26.936Z,29.6
2018-05-21T09:08:41.614Z,28.77
2018-05-21T09:09:26.731Z,28.74
2018-05-21T09:10:27.019Z,28.95
2018-05-21T09:11:27.080Z,29.27
2018-05-21T09:12:26.972Z,29.43
2018-05-21T09:13:26.878Z,29.48
2018-05-21T09:14:27.159Z,29.61
2018-05-21T09:15:27.208Z,29.15
2018-05-21T09:16:27.337Z,29
2018-05-21T09:17:26.989Z,28.76
2018-05-21T09:18:26.776Z,29.08
2018-05-21T09:19:27.328Z,29.43
2018-05-21T09:20:27.348Z,29.27
2018-05-21T09:21:27.415Z,29.15
2018-05-21T09:22:27.421Z,29.31
2018-05-21T09:24:42.149Z,29.6
2018-05-21T09:26:27.631Z,29.85
2018-05-21T09:28:27.385Z,29.83
2018-05-21T09:29:27.118Z,30.19
2018-05-21T09:30:27.698Z,30.07
2018-05-21T09:31:27.890Z,30.79
2018-05-21T09:32:27.773Z,30.98
2018-05-21T09:33:42.430Z,30.45
2018-05-21T09:34:42.480Z,30.46
2018-05-21T09:35:27.836Z,30.31
2018-05-21T09:36:27.897Z,30.07
2018-05-21T09:37:27.641Z,29.86
2018-05-21T09:38:27.416Z,29.95
2018-05-21T09:39:27.984Z,29.68
2018-05-21T09:40:42.673Z,29.55
2018-05-21T09:41:28.059Z,29.33
2018-05-21T09:42:28.057Z,29.33
2018-05-21T09:43:27.855Z,29.63
2018-05-21T09:44:27.865Z,29.67
2018-05-21T09:45:28.175Z,30.34
2018-05-21T09:46:28.268Z,30.6
2018-05-21T09:47:28.343Z,30.55
2018-05-21T09:48:28.250Z,30.65
2018-05-21T09:49:28.310Z,30.64
2018-05-21T09:50:28.343Z,30.42
2018-05-21T09:51:43.028Z,30.54
2018-05-21T09:52:28.439Z,30.15
2018-05-21T09:54:28.029Z,30
2018-05-21T09:56:43.189Z,29.6
2018-05-21T09:57:28.298Z,29.63
2018-05-21T09:58:42.992Z,29.08
2018-05-21T09:59:28.625Z,29.16
2018-05-21T10:01:43.336Z,28.77
2018-05-21T10:02:28.442Z,28.67
2018-05-21T10:03:28.503Z,28.76
2018-05-21T10:04:28.769Z,28.66
2018-05-21T10:05:43.476Z,28.74
2018-05-21T10:06:28.867Z,29.02
2018-05-21T10:07:28.877Z,29.05
2018-05-21T10:08:28.895Z,29.15
2018-05-21T10:09:28.930Z,28.95
2018-05-21T10:10:28.977Z,29.36
2018-05-21T10:11:43.651Z,29.04
2018-05-21T10:12:29.054Z,29.11
2018-05-21T10:13:29.047Z,29
2018-05-21T10:14:29.110Z,29.06
2018-05-21T10:15:29.115Z,29.15
2018-05-21T10:16:29.155Z,29.04
2018-05-21T10:18:43.867Z,29.21
2018-05-21T10:19:29.063Z,29.34
2018-05-21T10:20:29.298Z,29.46
2018-05-21T10:21:29.300Z,29.15
2018-05-21T10:22:29.362Z,28.93
2018-05-21T10:23:29.360Z,28.55
2018-05-21T10:24:29.157Z,27.94
2018-05-21T10:25:29.421Z,27.94
2018-05-21T10:27:29.495Z,28.25
2018-05-21T10:28:29.543Z,28
2018-05-21T10:29:29.048Z,27.96
2018-05-21T10:30:29.318Z,27.62
2018-05-21T10:31:29.624Z,27.13
2018-05-21T10:32:29.635Z,27.07
2018-05-21T10:33:29.695Z,26.8
2018-05-21T10:34:29.729Z,26.52
2018-05-21T10:35:29.761Z,26.3
2018-05-21T10:36:29.754Z,26.29
2018-05-21T10:37:29.552Z,26.51
2018-05-21T10:38:29.819Z,26.63
2018-05-21T10:39:29.605Z,26.28
2018-05-21T10:40:29.618Z,26.2
2018-05-21T10:41:29.943Z,26.23
2018-05-21T10:42:29.935Z,26.29
2018-05-21T10:43:44.773Z,26.33
2018-05-21T10:44:30.106Z,26.29
2018-05-21T10:46:30.054Z,26.43
2018-05-21T10:47:30.115Z,26.58
2018-05-21T10:48:29.855Z,26.72
2018-05-21T10:49:29.926Z,26.58
2018-05-21T10:50:30.185Z,26.21
2018-05-21T10:51:45.077Z,25.9
2018-05-21T10:52:30.000Z,26.2
2018-05-21T10:53:30.260Z,26.6
2018-05-21T10:54:30.380Z,26.82
2018-05-21T10:55:30.351Z,26.77
2018-05-21T10:57:30.476Z,26.76
2018-05-21T10:58:30.444Z,26.91
2018-05-21T10:59:45.119Z,26.7
2018-05-21T11:00:30.484Z,26.65
2018-05-21T11:01:45.247Z,27.03
2018-05-21T11:03:30.296Z,27
2018-05-21T11:04:30.617Z,26.55
2018-05-21T11:05:30.611Z,26.72
2018-05-21T11:06:30.679Z,26.72
2018-05-21T11:07:30.763Z,26.57
2018-05-21T11:08:30.735Z,26.5
2018-05-21T11:09:30.730Z,26.29
2018-05-21T11:10:30.790Z,26.47
2018-05-21T11:11:30.548Z,26.23
2018-05-21T11:12:30.815Z,26.2
2018-05-21T11:13:30.848Z,26.43
2018-05-21T11:14:30.910Z,26.47
2018-05-21T11:15:45.566Z,26.5
2018-05-21T11:16:30.966Z,26.32
2018-05-21T11:17:30.975Z,26.4
2018-05-21T11:18:31.022Z,26.29
2018-05-21T11:20:30.793Z,25.62
2018-05-21T11:21:30.844Z,25.72
2018-05-21T11:22:31.125Z,25.9
2018-05-21T11:23:30.883Z,25.82
2018-05-21T11:24:31.106Z,25.85
2018-05-21T11:25:31.217Z,26.06
2018-05-21T11:26:45.898Z,26.2
2018-05-21T11:27:31.275Z,26.09
2018-05-21T11:28:31.031Z,26.07
2018-05-21T11:29:31.304Z,26.28
2018-05-21T11:30:31.336Z,26.29
2018-05-21T11:31:46.040Z,26.21
2018-05-21T11:33:31.462Z,26.37
2018-05-21T11:34:31.198Z,26.25
2018-05-21T11:35:31.245Z,26.15
2018-05-21T11:36:31.518Z,25.99
2018-05-21T11:37:31.559Z,25.94
2018-05-21T11:38:31.585Z,25.82
2018-05-21T11:39:31.591Z,25.75
2018-05-21T11:40:31.359Z,25.97
2018-05-21T11:41:31.671Z,26.01
2018-05-21T11:42:31.678Z,25.88
2018-05-21T11:43:31.739Z,25.83
2018-05-21T11:44:31.484Z,25.88
2018-05-21T11:45:31.795Z,25.88
2018-05-21T11:46:46.551Z,25.62
2018-05-21T11:47:31.564Z,25.73
2018-05-21T11:48:31.599Z,26.17
2018-05-21T11:50:31.931Z,26.44
2018-05-21T11:51:46.594Z,26.51
2018-05-21T11:52:32.021Z,26.47
2018-05-21T11:53:46.647Z,26.45
2018-05-21T11:54:32.016Z,26.66
2018-05-21T11:55:32.056Z,26.51
2018-05-21T11:56:46.750Z,26.47
2018-05-21T11:57:31.865Z,26.39
2018-05-21T11:58:31.872Z,26.37
2018-05-21T11:59:32.197Z,26.32
2018-05-21T12:00:32.183Z,26.18
2018-05-21T12:01:32.247Z,26.33
2018-05-21T12:03:32.302Z,26.35
2018-05-21T12:04:32.297Z,26.3
2018-05-21T12:05:32.361Z,26.26
2018-05-21T12:06:32.097Z,26.45
2018-05-21T12:07:32.473Z,26.45
2018-05-21T12:08:32.409Z,26.62
2018-05-21T12:09:32.206Z,26.43
2018-05-21T12:10:32.491Z,26.37
2018-05-21T12:11:32.510Z,26.45
2018-05-21T12:12:32.521Z,26.44
2018-05-21T12:13:32.829Z,26.29
2018-05-21T12:14:32.612Z,26.44
2018-05-21T12:16:32.732Z,26.81
2018-05-21T12:18:47.106Z,26.45
2018-05-21T12:19:32.739Z,26.45
2018-05-21T12:20:32.518Z,26.58
2018-05-21T12:21:32.807Z,26.94
2018-05-21T12:22:32.590Z,27
2018-05-21T12:23:32.597Z,27.04
2018-05-21T12:24:47.523Z,26.85
2018-05-21T12:25:32.647Z,26.8
2018-05-21T12:26:32.658Z,26.81
2018-05-21T12:27:32.974Z,26.77
2018-05-21T12:28:32.999Z,26.85
2018-05-21T12:29:33.029Z,26.8
2018-05-21T12:30:32.771Z,26.99
2018-05-21T12:31:33.090Z,27.06
2018-05-21T12:32:33.088Z,26.97
2018-05-21T12:33:33.127Z,26.77
2018-05-21T12:35:32.929Z,26.36
2018-05-21T12:37:33.262Z,26.43
2018-05-21T12:39:33.287Z,26.18
2018-05-21T12:40:33.340Z,25.92
2018-05-21T12:41:33.082Z,25.91
2018-05-21T12:42:33.386Z,25.87
2018-05-21T12:43:33.396Z,26.01
2018-05-21T12:44:33.461Z,26.3
2018-05-21T12:45:33.226Z,26.18
2018-05-21T12:46:33.483Z,26.18
2018-05-21T12:47:33.258Z,26.06
2018-05-21T12:48:33.546Z,26.17
2018-05-21T12:49:33.592Z,26.18
2018-05-21T12:51:33.385Z,26.52
2018-05-21T12:52:33.678Z,26.43
2018-05-21T12:53:33.161Z,26.39
2018-05-21T12:54:33.728Z,26.35
2018-05-21T12:55:33.475Z,26.39
2018-05-21T12:56:33.793Z,26.18
2018-05-21T12:57:33.792Z,26.18
2018-05-21T12:58:33.582Z,26.36
2018-05-21T12:59:33.842Z,26.62
2018-05-21T13:00:33.631Z,26.54
2018-05-21T13:01:33.917Z,26.37
2018-05-21T13:02:33.961Z,26.5
2018-05-21T13:03:33.959Z,26.77
2018-05-21T13:04:34.014Z,26.92
2018-05-21T13:05:34.009Z,26.97
2018-05-21T13:06:48.716Z,27
2018-05-21T13:07:34.066Z,27.03
2018-05-21T13:08:34.123Z,27.19
2018-05-21T13:09:34.152Z,27.1
2018-05-21T13:10:34.154Z,27.22
2018-05-21T13:12:33.951Z,26.99
2018-05-21T13:13:33.736Z,26.91
2018-05-21T13:14:34.009Z,26.72
2018-05-21T13:15:34.318Z,26.6
2018-05-21T13:16:34.071Z,26.55
2018-05-21T13:17:34.362Z,26.3
2018-05-21T13:18:34.371Z,25.99
2018-05-21T13:19:34.434Z,25.83
2018-05-21T13:20:34.463Z,25.87
2018-05-21T13:21:49.122Z,25.92
2018-05-21T13:22:34.581Z,25.97
2018-05-21T13:23:34.524Z,25.91
2018-05-21T13:24:34.572Z,25.95
2018-05-21T13:25:34.567Z,25.97
2018-05-21T13:26:34.634Z,26.44
2018-05-21T13:27:34.638Z,26.33
2018-05-21T13:28:34.651Z,26.32
2018-05-21T13:29:34.679Z,26.45
2018-05-21T13:30:34.736Z,26.32
2018-05-21T13:31:34.763Z,26.2
2018-05-21T13:32:49.441Z,25.99
2018-05-21T13:33:34.795Z,26.05
2018-05-21T13:34:34.696Z,25.95
2018-05-21T13:35:34.844Z,25.75
2018-05-21T13:36:34.890Z,25.67
2018-05-21T13:38:34.958Z,25.46
2018-05-21T13:39:34.997Z,25.54
2018-05-21T13:40:34.987Z,25.62
2018-05-21T13:41:35.124Z,25.46
2018-05-21T13:43:35.084Z,25.33
2018-05-21T13:44:35.092Z,25.15
2018-05-21T13:45:35.158Z,25.28
2018-05-21T13:46:35.174Z,25.58
2018-05-21T13:47:35.195Z,25.65
2018-05-21T13:48:35.208Z,25.69
2018-05-21T13:49:34.973Z,25.67
2018-05-21T13:50:35.287Z,25.5
2018-05-21T13:51:35.299Z,25.4
2018-05-21T13:52:35.614Z,25.61
2018-05-21T13:53:50.026Z,25.65
2018-05-21T13:54:35.369Z,25.69
2018-05-21T13:55:35.168Z,25.73
2018-05-21T13:57:35.451Z,25.75
2018-05-21T13:58:35.507Z,25.87
2018-05-21T13:59:35.245Z,25.99
2018-05-21T14:00:35.563Z,26.07
2018-05-21T14:01:35.559Z,25.79
2018-05-21T14:02:35.618Z,25.55
2018-05-21T14:03:35.362Z,25.65